createdAt,value
2019-03-08T00:00:24.359Z,8.30
2019-03-08T00:04:37.264Z,8.30
2019-03-08T00:08:48.529Z,8.30
2019-03-08T00:12:59.795Z,8.30
2019-03-08T00:17:12.314Z,8.30
2019-03-08T00:21:22.435Z,8.40
2019-03-08T00:25:33.672Z,8.50
2019-03-08T00:29:45.122Z,8.50
2019-03-08T00:33:56.429Z,8.50
2019-03-08T00:38:07.763Z,8.50
2019-03-08T00:42:20.441Z,8.60
2019-03-08T00:46:31.604Z,8.70
2019-03-08T00:50:42.894Z,8.70
2019-03-08T00:54:54.132Z,8.70
2019-03-08T00:59:05.450Z,8.70
2019-03-08T01:03:16.763Z,8.80
2019-03-08T01:07:29.570Z,8.70
2019-03-08T01:11:41.068Z,8.70
2019-03-08T01:15:53.113Z,8.70
2019-03-08T01:20:06.038Z,8.70
2019-03-08T01:24:18.063Z,8.70
2019-03-08T01:28:29.645Z,8.60
2019-03-08T01:32:41.152Z,8.60
2019-03-08T01:36:52.260Z,8.50
2019-03-08T01:41:05.059Z,8.50
2019-03-08T01:45:16.626Z,8.50
2019-03-08T01:49:27.848Z,8.40
2019-03-08T01:53:39.060Z,8.40
2019-03-08T01:57:50.536Z,8.40
2019-03-08T02:02:01.860Z,8.40
2019-03-08T02:06:14.998Z,8.40
2019-03-08T02:10:25.567Z,8.30
2019-03-08T02:14:35.735Z,8.30
2019-03-08T02:18:46.923Z,8.30
2019-03-08T02:23:00.193Z,8.30
2019-03-08T02:27:11.501Z,8.30
2019-03-08T02:31:22.708Z,8.30
2019-03-08T02:35:35.494Z,8.20
2019-03-08T02:39:46.773Z,8.20
2019-03-08T02:43:57.997Z,8.10
2019-03-08T02:48:09.400Z,8.10
2019-03-08T02:52:20.705Z,8.00
2019-03-08T02:56:31.951Z,8.10
2019-03-08T03:00:46.751Z,8.10
2019-03-08T03:04:58.018Z,8.00
2019-03-08T03:09:09.403Z,8.00
2019-03-08T03:13:20.654Z,8.00
2019-03-08T03:17:32.098Z,8.00
2019-03-08T03:21:43.364Z,8.00
2019-03-08T03:25:55.053Z,8.00
2019-03-08T03:30:09.562Z,8.00
2019-03-08T03:34:22.074Z,8.00
2019-03-08T03:38:33.575Z,8.00
2019-03-08T03:42:46.313Z,8.00
2019-03-08T03:46:57.555Z,8.10
2019-03-08T03:51:10.412Z,8.10
2019-03-08T03:55:21.631Z,8.00
2019-03-08T03:59:33.048Z,8.00
2019-03-08T04:03:44.321Z,7.90
2019-03-08T04:07:55.590Z,7.90
2019-03-08T04:12:06.839Z,7.90
2019-03-08T04:16:18.258Z,7.90
2019-03-08T04:20:29.645Z,7.80
2019-03-08T04:24:42.122Z,7.80
2019-03-08T04:28:53.274Z,7.80
2019-03-08T04:33:04.471Z,7.80
2019-03-08T04:37:15.657Z,7.70
2019-03-08T04:41:27.043Z,7.70
2019-03-08T04:45:43.928Z,7.70
2019-03-08T04:49:55.284Z,7.70
2019-03-08T04:54:06.641Z,7.80
2019-03-08T04:58:17.797Z,7.70
2019-03-08T05:02:29.278Z,7.80
2019-03-08T05:06:40.499Z,7.70
2019-03-08T05:10:52.648Z,7.70
2019-03-08T05:15:04.838Z,7.80
2019-03-08T05:19:16.076Z,7.70
2019-03-08T05:23:27.640Z,7.70
2019-03-08T05:27:38.788Z,7.70
2019-03-08T05:31:50.036Z,7.80
2019-03-08T05:36:02.656Z,7.80
2019-03-08T05:40:16.966Z,7.80
2019-03-08T05:44:28.214Z,7.80
2019-03-08T05:48:39.947Z,7.90
2019-03-08T05:52:51.235Z,7.90
2019-03-08T05:57:02.574Z,8.00
2019-03-08T06:01:14.012Z,8.00
2019-03-08T06:05:25.307Z,8.10
2019-03-08T06:09:37.574Z,8.30
2019-03-08T06:13:48.225Z,8.40
2019-03-08T06:17:59.613Z,8.50
2019-03-08T06:22:10.941Z,8.50
2019-03-08T06:26:25.161Z,8.50
2019-03-08T06:30:37.247Z,8.50
2019-03-08T06:34:47.504Z,8.60
2019-03-08T06:39:00.094Z,8.70
2019-03-08T06:43:10.838Z,8.70
2019-03-08T06:47:22.182Z,8.80
2019-03-08T06:51:33.974Z,8.80
2019-03-08T06:55:45.317Z,8.90
2019-03-08T06:59:59.127Z,9.00
2019-03-08T07:04:10.304Z,9.10
2019-03-08T07:08:21.614Z,9.20
2019-03-08T07:12:32.838Z,9.20
2019-03-08T07:16:44.155Z,9.50
2019-03-08T07:20:56.922Z,9.90
2019-03-08T07:25:24.924Z,10.20
2019-03-08T07:29:44.068Z,10.30
2019-03-08T07:33:57.048Z,9.90
2019-03-08T07:38:12.545Z,9.90
2019-03-08T07:42:27.981Z,9.80
2019-03-08T07:46:55.988Z,9.70
2019-03-08T07:51:21.344Z,9.60
2019-03-08T07:55:49.191Z,9.50
2019-03-08T08:00:02.008Z,9.40
2019-03-08T08:04:21.088Z,9.40
2019-03-08T08:08:37.381Z,9.40
2019-03-08T08:13:09.817Z,9.50
2019-03-08T08:17:31.729Z,9.60
2019-03-08T08:22:03.642Z,9.70
2019-03-08T08:26:19.385Z,9.60
2019-03-08T08:30:48.232Z,9.60
2019-03-08T08:35:17.989Z,9.50
2019-03-08T08:39:46.901Z,9.50
2019-03-08T08:44:13.628Z,9.60
2019-03-08T08:48:42.332Z,9.70
2019-03-08T08:52:57.213Z,9.70
2019-03-08T08:57:28.385Z,9.70
2019-03-08T09:01:55.664Z,9.60
2019-03-08T09:06:21.251Z,9.30
2019-03-08T09:10:37.722Z,9.20
2019-03-08T09:14:54.020Z,9.00
2019-03-08T09:19:06.993Z,8.60
2019-03-08T09:23:28.639Z,8.70
2019-03-08T09:27:41.605Z,8.90
2019-03-08T09:32:03.407Z,8.90
2019-03-08T09:36:19.835Z,8.70
2019-03-08T09:40:44.789Z,8.40
2019-03-08T09:44:57.782Z,8.50
2019-03-08T09:49:10.737Z,8.60
2019-03-08T09:53:39.020Z,8.80
2019-03-08T09:57:54.741Z,9.00
2019-03-08T10:02:11.255Z,9.00
2019-03-08T10:06:27.253Z,9.20
2019-03-08T10:10:52.385Z,9.40
2019-03-08T10:15:05.673Z,9.60
2019-03-08T10:19:35.446Z,9.60
2019-03-08T10:23:54.048Z,9.80
2019-03-08T10:28:27.129Z,9.80
2019-03-08T10:32:46.617Z,9.90
2019-03-08T10:37:17.983Z,9.90
2019-03-08T10:41:37.626Z,10.00
2019-03-08T10:46:15.230Z,9.90
2019-03-08T10:50:39.838Z,10.00
2019-03-08T10:54:55.467Z,11.50
2019-03-08T10:59:08.384Z,12.40
2019-03-08T11:03:25.312Z,12.20
2019-03-08T11:07:44.024Z,11.50
2019-03-08T11:12:14.185Z,10.80
2019-03-08T11:16:30.484Z,10.70
2019-03-08T11:20:48.142Z,11.80
2019-03-08T11:25:08.250Z,12.60
2019-03-08T11:29:19.856Z,12.60
2019-03-08T11:33:32.130Z,11.80
2019-03-08T11:37:51.707Z,11.90
2019-03-08T11:42:21.662Z,13.40
2019-03-08T11:46:40.101Z,12.70
2019-03-08T11:50:55.835Z,11.90
2019-03-08T11:55:24.639Z,11.80
2019-03-08T11:59:40.817Z,11.20
2019-03-08T12:04:10.279Z,10.80
2019-03-08T12:08:26.436Z,10.60
2019-03-08T12:12:39.586Z,10.50
2019-03-08T12:17:01.447Z,10.30
2019-03-08T12:21:17.215Z,10.10
2019-03-08T12:25:46.341Z,9.80
2019-03-08T12:30:14.102Z,9.30
2019-03-08T12:34:27.691Z,8.90
2019-03-08T12:38:43.481Z,9.20
2019-03-08T12:42:56.730Z,9.60
2019-03-08T12:47:21.816Z,10.00
2019-03-08T12:51:34.870Z,10.10
2019-03-08T12:55:47.851Z,10.00
2019-03-08T13:00:09.662Z,10.10
2019-03-08T13:04:37.510Z,10.30
2019-03-08T13:09:07.649Z,10.40
2019-03-08T13:13:19.147Z,10.30
2019-03-08T13:17:30.322Z,10.10
2019-03-08T13:21:41.454Z,10.00
2019-03-08T13:25:54.859Z,9.90
2019-03-08T13:30:15.502Z,9.80
2019-03-08T13:34:28.229Z,9.70
2019-03-08T13:38:40.958Z,9.40
2019-03-08T13:42:52.353Z,9.40
2019-03-08T13:47:03.719Z,9.50
2019-03-08T13:51:15.056Z,9.50
2019-03-08T13:55:28.091Z,9.50
2019-03-08T13:59:39.427Z,9.50
2019-03-08T14:03:51.101Z,9.60
2019-03-08T14:08:03.775Z,9.50
2019-03-08T14:12:16.809Z,9.50
2019-03-08T14:16:33.920Z,9.50
2019-03-08T14:20:46.397Z,9.40
2019-03-08T14:24:58.672Z,9.40
2019-03-08T14:29:12.139Z,9.30
2019-03-08T14:33:25.777Z,9.20
2019-03-08T14:37:37.161Z,9.10
2019-03-08T14:41:50.087Z,9.10
2019-03-08T14:46:08.816Z,9.10
2019-03-08T14:50:20.023Z,9.00
2019-03-08T14:54:32.442Z,8.90
2019-03-08T14:58:43.810Z,9.00
2019-03-08T15:02:55.358Z,9.20
2019-03-08T15:07:06.745Z,9.20
2019-03-08T15:11:18.143Z,9.10
2019-03-08T15:15:29.523Z,9.00
2019-03-08T15:19:41.908Z,9.10
2019-03-08T15:23:54.502Z,9.10
2019-03-08T15:28:05.926Z,9.30
2019-03-08T15:32:18.738Z,9.30
2019-03-08T15:36:29.999Z,9.30
2019-03-08T15:40:41.378Z,9.40
2019-03-08T15:44:52.727Z,9.50
2019-03-08T15:49:05.947Z,9.50
2019-03-08T15:53:18.187Z,9.30
2019-03-08T15:57:29.503Z,9.30
2019-03-08T16:01:40.624Z,9.30
2019-03-08T16:05:52.367Z,9.30
2019-03-08T16:10:04.659Z,9.30
2019-03-08T16:14:15.830Z,9.30
2019-03-08T16:18:27.162Z,9.20
2019-03-08T16:22:39.107Z,9.20
2019-03-08T16:26:50.622Z,9.10
2019-03-08T16:31:03.391Z,9.10
2019-03-08T16:35:14.689Z,9.00
2019-03-08T16:39:33.276Z,9.00
2019-03-08T16:43:46.677Z,8.90
2019-03-08T16:48:08.600Z,8.70
2019-03-08T16:52:26.721Z,8.50
2019-03-08T16:56:45.167Z,8.30
2019-03-08T17:01:16.328Z,8.10
2019-03-08T17:05:44.667Z,8.00
2019-03-08T17:10:00.511Z,7.90
2019-03-08T17:14:13.506Z,7.80
2019-03-08T17:18:30.147Z,7.70
2019-03-08T17:22:48.655Z,7.50
2019-03-08T17:27:04.234Z,7.40
2019-03-08T17:31:29.673Z,7.50
2019-03-08T17:35:48.462Z,7.50
2019-03-08T17:40:04.297Z,7.50
2019-03-08T17:44:35.019Z,7.70
2019-03-08T17:48:50.987Z,7.90
2019-03-08T17:53:19.837Z,7.90
2019-03-08T17:57:38.866Z,7.90
2019-03-08T18:01:51.606Z,7.90
2019-03-08T18:06:07.066Z,7.90
2019-03-08T18:10:25.670Z,8.00
2019-03-08T18:14:54.207Z,8.00
2019-03-08T18:19:23.866Z,8.00
2019-03-08T18:23:44.997Z,8.00
2019-03-08T18:28:02.198Z,8.00
2019-03-08T18:32:27.153Z,8.10
2019-03-08T18:36:42.755Z,8.20
2019-03-08T18:40:58.035Z,8.20
2019-03-08T18:45:15.641Z,8.20
2019-03-08T18:49:28.526Z,8.20
2019-03-08T18:53:41.334Z,8.20
2019-03-08T18:58:10.521Z,8.10
2019-03-08T19:02:39.922Z,8.00
2019-03-08T19:07:09.422Z,7.90
2019-03-08T19:11:32.450Z,7.90
2019-03-08T19:15:45.435Z,7.90
2019-03-08T19:20:07.299Z,7.90
2019-03-08T19:24:20.622Z,7.90
2019-03-08T19:28:34.069Z,7.90
2019-03-08T19:32:47.023Z,7.90
2019-03-08T19:37:16.223Z,7.80
2019-03-08T19:41:32.821Z,7.80
2019-03-08T19:45:52.299Z,7.80
2019-03-08T19:50:22.089Z,7.80
2019-03-08T19:54:50.543Z,7.80
2019-03-08T19:59:21.591Z,7.70
2019-03-08T20:03:34.614Z,7.70
2019-03-08T20:08:02.149Z,7.60
2019-03-08T20:12:32.995Z,7.60
2019-03-08T20:16:48.711Z,7.50
2019-03-08T20:21:16.680Z,7.40
2019-03-08T20:25:45.750Z,7.30
2019-03-08T20:30:04.634Z,7.30
2019-03-08T20:34:29.980Z,7.30
2019-03-08T20:38:48.364Z,7.30
2019-03-08T20:43:07.702Z,7.20
2019-03-08T20:47:20.507Z,7.10
2019-03-08T20:51:31.665Z,7.10
2019-03-08T20:55:42.929Z,7.00
2019-03-08T20:59:54.088Z,7.00
2019-03-08T21:04:05.312Z,6.90
2019-03-08T21:08:16.446Z,6.80
2019-03-08T21:12:27.611Z,6.80
2019-03-08T21:16:38.915Z,6.80
2019-03-08T21:20:50.162Z,6.80
2019-03-08T21:25:01.475Z,6.80
2019-03-08T21:29:13.103Z,6.80
2019-03-08T21:33:25.916Z,6.80
2019-03-08T21:37:38.435Z,6.80
2019-03-08T21:41:50.264Z,6.70
2019-03-08T21:46:01.483Z,6.70
2019-03-08T21:50:18.274Z,6.70
2019-03-08T21:54:31.055Z,6.70
2019-03-08T21:58:43.489Z,6.70
2019-03-08T22:02:54.712Z,6.80
2019-03-08T22:07:05.952Z,6.90
2019-03-08T22:11:18.205Z,6.90
2019-03-08T22:15:29.475Z,6.90
2019-03-08T22:19:40.639Z,7.00
2019-03-08T22:23:51.763Z,7.10
2019-03-08T22:28:03.146Z,7.20
2019-03-08T22:32:14.559Z,7.20
2019-03-08T22:36:26.042Z,7.20
2019-03-08T22:40:38.051Z,7.20
2019-03-08T22:44:50.271Z,7.30
2019-03-08T22:49:03.845Z,7.30
2019-03-08T22:53:15.121Z,7.30
2019-03-08T22:57:27.905Z,7.30
2019-03-08T23:01:41.919Z,7.40
2019-03-08T23:05:56.117Z,7.40
2019-03-08T23:10:13.232Z,7.40
2019-03-08T23:14:26.092Z,7.40
2019-03-08T23:18:37.427Z,7.50
2019-03-08T23:22:49.477Z,7.50
2019-03-08T23:27:21.432Z,7.40
2019-03-08T23:31:34.352Z,7.40
2019-03-08T23:35:45.547Z,7.40
2019-03-08T23:39:59.501Z,7.40
2019-03-08T23:44:11.436Z,7.40
2019-03-08T23:48:22.018Z,7.40
2019-03-08T23:52:34.715Z,7.40
2019-03-08T23:56:45.926Z,7.30
